Outage due to equipment failure. Site will not be transmitting information for the foreseeable future.

Latest Weather Observations for Rundle Island

IDQ60801

Issued at 9:35 pm EST Thursday 17 April 2014 (issued every 30 minutes, with the page automatically refreshed every 10 minutes)

About weather observations | Map of weather stations | Latest weather observations for QLD | Other Formats
Station Details ID: 039322 Name: RUNDLE ISLAND Lat: -23.53 Lon: 151.28 Height: 19.8 m
Data from the previous 72 hours. | See also: Recent months at Rundle Island
Date/Time
EST
Temp
°C
App
Temp
°C
Dew
Point
Rel
Hum
%
Delta-T
°C
Wind Press
QNH
hPa
Press
MSL
hPa
Rain
since 9 am
mm
Dir
 
Spd
km/h
Gust
km/h
Spd
kts
Gust
kts
17/09:30pm 24.9 - - - - N 13 17 7 9 1016.9 - -
17/09:00pm 24.8 - - - - NNE 13 17 7 9 1017.0 1016.9 -
17/08:30pm 24.9 - - - - NNE 13 15 7 8 1017.0 - -
17/08:00pm 24.9 - - - - NNE 13 17 7 9 1016.7 1016.6 -
17/07:30pm 24.9 - - - - NNE 13 15 7 8 1016.5 - -
17/07:00pm 24.8 - - - - NNE 9 15 5 8 1016.0 1015.9 -
17/06:30pm 24.9 - - - - NNE 9 11 5 6 1015.5 - -
17/06:00pm 24.9 - - - - NE 11 15 6 8 1015.2 1015.1 -
17/05:30pm 25.0 - - - - N 13 19 7 10 1014.8 - -
17/05:00pm 25.2 - - - - NNE 17 20 9 11 1014.5 1014.4 -
17/04:30pm 25.0 - - - - N 15 19 8 10 1014.4 - -
17/04:00pm 24.9 - - - - N 17 20 9 11 1014.3 1014.2 -
17/03:30pm 25.0 - - - - N 15 19 8 10 1014.3 - -
17/03:00pm 25.7 - - - - NNE 13 17 7 9 1014.3 1014.2 -
17/02:30pm 25.0 - - - - NNE 13 17 7 9 1014.4 - -
17/02:00pm 24.9 - - - - NNE 11 15 6 8 1014.8 1014.7 -
17/01:30pm 25.0 - - - - NNE 11 15 6 8 1015.1 - -
17/01:00pm 26.1 - - - - NNE 9 11 5 6 1015.6 1015.5 -
17/12:30pm 26.1 - - - - NNE 6 9 3 5 1016.0 - -
17/12:00pm 24.8 - - - - NE 6 7 3 4 1016.6 1016.5 -
17/11:30am 25.9 - - - - NE 6 9 3 5 1017.0 - -
17/11:00am 26.3 - - - - E 6 7 3 4 1017.5 1017.4 -
17/10:30am 25.1 - - - - SE 7 9 4 5 1017.7 - -
17/10:00am 24.5 - - - - SE 9 11 5 6 1017.8 1017.7 -
17/09:30am 24.2 - - - - SSE 11 11 6 6 1017.9 - -
17/09:00am 24.4 - - - - S 11 13 6 7 1017.8 1017.7 -
17/08:30am 24.2 - - - - S 11 13 6 7 1017.7 - -
17/08:00am 23.6 - - - - S 11 15 6 8 1017.4 1017.3 -
17/07:30am 23.1 - - - - S 15 17 8 9 1017.2 - -
17/07:00am 23.1 - - - - S 13 15 7 8 1016.8 1016.7 -
17/06:30am 23.1 - - - - S 13 17 7 9 1016.5 - -
17/06:00am 23.8 - - - - ESE 6 9 3 5 1016.2 1016.1 -
17/05:30am 23.9 - - - - E 7 11 4 6 1015.9 - -
17/05:00am 24.1 - - - - E 11 15 6 8 1015.7 1015.6 -
17/04:30am 24.1 - - - - ENE 7 9 4 5 1015.5 - -
17/04:00am 24.0 - - - - NE 7 9 4 5 1015.2 1015.1 -
17/03:30am 23.9 - - - - E 6 7 3 4 1015.2 - -
17/03:00am 24.0 - - - - ENE 7 13 4 7 1015.2 1015.1 -
17/02:30am 24.1 - - - - E 7 11 4 6 1015.2 - -
17/02:00am 24.1 - - - - E 7 9 4 5 1015.1 1015.0 -
17/01:30am 24.1 - - - - NNE 6 7 3 4 1015.3 - -
17/01:00am 24.1 - - - - NE 6 7 3 4 1015.7 1015.6 -
17/12:30am 24.2 - - - - NNE 6 7 3 4 1015.9 - -
17/12:00am 24.3 - - - - NNE 7 11 4 6 1015.8 1015.7 -
 
Date/Time
EST
Temp
°C
App
Temp
°C
Dew
Point
Rel
Hum
%
Delta-T
°C
Wind Press
QNH
hPa
Press
MSL
hPa
Rain
since 9 am
mm
Dir
 
Spd
km/h
Gust
km/h
Spd
kts
Gust
kts
16/11:30pm 24.3 - - - - NNE 9 13 5 7 1015.8 - -
16/11:00pm 24.3 - - - - NNE 11 13 6 7 1015.8 1015.7 -
16/10:30pm 24.3 - - - - NE 9 11 5 6 1016.0 - -
16/10:00pm 24.3 - - - - N 11 13 6 7 1015.7 1015.6 -
16/09:30pm 24.3 - - - - NNE 9 13 5 7 1015.9 - -
16/09:00pm 24.3 - - - - NNE 11 13 6 7 1015.7 1015.6 -
16/08:30pm 24.3 - - - - NE 13 15 7 8 1015.5 - -
16/08:00pm 24.3 - - - - NNE 11 13 6 7 1015.4 1015.3 -
16/07:30pm 24.3 - - - - NE 11 17 6 9 1015.1 - -
16/07:00pm 24.1 - - - - NNE 13 17 7 9 1014.9 1014.8 -
16/06:30pm 24.2 - - - - NE 13 17 7 9 1014.2 - -
16/06:00pm 24.2 - - - - ENE 15 19 8 10 1013.9 1013.8 -
16/05:30pm 24.1 - - - - ENE 15 19 8 10 1013.6 - -
16/05:00pm 24.4 - - - - NE 17 20 9 11 1013.2 1013.1 -
16/04:30pm 24.5 - - - - NE 17 20 9 11 1013.1 - -
16/04:00pm 24.4 - - - - ENE 17 20 9 11 1013.1 1013.0 -
16/03:30pm 24.6 - - - - ENE 17 19 9 10 1013.1 - -
16/03:00pm 24.8 - - - - ENE 13 17 7 9 1013.4 1013.3 -
16/02:30pm 24.6 - - - - ENE 15 19 8 10 1013.5 - -
16/02:00pm 24.5 - - - - ENE 17 19 9 10 1013.8 1013.7 -
16/01:30pm 24.3 - - - - E 15 19 8 10 1014.2 - -
16/01:00pm 24.6 - - - - ESE 15 17 8 9 1014.5 1014.4 -
16/12:30pm 24.0 - - - - ESE 13 17 7 9 1014.8 - -
16/12:00pm 24.2 - - - - ESE 13 17 7 9 1015.0 1014.9 -
16/11:30am 23.3 - - - - SE 13 17 7 9 1015.5 - -
16/11:00am 23.6 - - - - SE 11 17 6 9 1015.9 1015.8 -
16/10:30am 23.4 - - - - SSE 13 15 7 8 1016.3 - -
16/10:00am 23.4 - - - - SSE 15 19 8 10 1016.6 1016.5 -
16/09:30am 23.1 - - - - SE 15 19 8 10 1016.6 - -
16/09:00am 23.3 - - - - SSE 17 20 9 11 1016.6 1016.5 -
16/08:30am 23.0 - - - - SE 17 20 9 11 1016.5 - -
16/08:00am 23.0 - - - - SSE 17 20 9 11 1016.3 1016.2 -
16/07:30am 23.0 - - - - SE 19 24 10 13 1016.1 - -
16/07:00am 22.9 - - - - SE 19 24 10 13 1015.8 1015.7 -
16/06:30am 22.7 - - - - SE 20 24 11 13 1015.3 - -
16/06:00am 22.8 - - - - SE 22 26 12 14 1015.0 1014.9 -
16/05:30am 22.8 - - - - SE 20 26 11 14 1014.7 - -
16/05:00am 22.9 - - - - SE 20 26 11 14 1014.6 1014.5 -
16/04:30am 22.9 - - - - SSE 22 26 12 14 1014.4 - -
16/04:00am 22.9 - - - - SSE 22 26 12 14 1014.1 1014.0 -
16/03:30am 23.1 - - - - SSE 24 28 13 15 1014.0 - -
16/03:00am 23.3 - - - - SE 22 26 12 14 1014.2 1014.1 -
16/02:30am 23.3 - - - - SE 22 24 12 13 1014.2 - -
16/02:00am 24.0 - - - - SE 22 26 12 14 1014.4 1014.3 -
16/01:30am 24.1 - - - - ESE 24 28 13 15 1014.4 - -
16/01:00am 24.3 - - - - ESE 24 28 13 15 1014.9 1014.8 -
16/12:30am 24.3 - - - - ESE 22 26 12 14 1015.1 - -
16/12:00am 24.3 - - - - ESE 22 26 12 14 1015.2 1015.1 -
 
Date/Time
EST
Temp
°C
App
Temp
°C
Dew
Point
Rel
Hum
%
Delta-T
°C
Wind Press
QNH
hPa
Press
MSL
hPa
Rain
since 9 am
mm
Dir
 
Spd
km/h
Gust
km/h
Spd
kts
Gust
kts
15/11:30pm 24.2 - - - - ESE 30 33 16 18 1015.0 - -
15/11:00pm 24.6 - - - - ESE 24 32 13 17 1015.0 1014.9 -
15/10:30pm 24.4 - - - - ESE 28 32 15 17 1015.0 - -
15/10:00pm 24.7 - - - - ESE 24 26 13 14 1015.0 1014.9 -
15/09:30pm 24.7 - - - - E 22 26 12 14 1014.9 - -
15/09:00pm 24.8 - - - - ESE 22 24 12 13 1014.9 1014.8 -
15/08:30pm 24.8 - - - - E 19 22 10 12 1015.0 - -
15/08:00pm 24.8 - - - - ESE 17 20 9 11 1014.7 1014.6 -
15/07:30pm 24.7 - - - - E 19 20 10 11 1014.4 - -
15/07:00pm 24.6 - - - - ESE 19 20 10 11 1014.2 1014.1 -
15/06:30pm 24.6 - - - - E 20 24 11 13 1013.8 - -
15/06:00pm 24.5 - - - - E 22 26 12 14 1013.5 1013.4 -
15/05:30pm 24.5 - - - - E 22 26 12 14 1013.2 - -
15/05:00pm 24.6 - - - - E 24 28 13 15 1013.0 1012.9 -
15/04:30pm 24.7 - - - - E 24 26 13 14 1012.8 - -
15/04:00pm 24.8 - - - - E 24 28 13 15 1012.7 1012.6 -
15/03:30pm 24.7 - - - - ESE 26 30 14 16 1012.6 - -
15/03:00pm 24.7 - - - - ESE 24 28 13 15 1012.7 1012.6 -
15/02:30pm 24.6 - - - - ESE 24 28 13 15 1012.8 - -
15/02:00pm 24.6 - - - - ESE 26 32 14 17 1012.8 1012.7 -
15/01:30pm 24.3 - - - - SE 28 32 15 17 1012.9 - -
15/01:00pm 24.5 - - - - SE 28 33 15 18 1013.2 1013.1 -
15/12:30pm 24.7 - - - - SE 26 30 14 16 1013.5 - -
15/12:00pm 24.5 - - - - SE 28 35 15 19 1013.7 1013.6 -
15/11:30am 24.1 - - - - SE 28 33 15 18 1014.3 - -
15/11:00am 24.2 - - - - SE 32 37 17 20 1014.5 1014.4 -
15/10:30am 23.8 - - - - SSE 22 28 12 15 1015.0 - -
15/10:00am 23.5 - - - - SSE 26 30 14 16 1015.0 1014.9 -
15/09:30am 23.2 - - - - SSE 30 35 16 19 1014.9 - -
15/09:00am 23.3 - - - - SSE 32 37 17 20 1014.8 1014.7 -
15/08:30am 23.1 - - - - SSE 33 39 18 21 1014.6 - -
15/08:00am 23.1 - - - - S 32 37 17 20 1014.4 1014.3 -
15/07:30am 22.8 - - - - S 35 39 19 21 1014.2 - -
15/07:00am 22.8 - - - - S 35 39 19 21 1014.1 1014.0 -
15/06:30am 22.6 - - - - S 35 43 19 23 1013.7 - -
15/06:00am 22.8 - - - - S 32 41 17 22 1013.3 1013.2 -
15/05:30am 23.2 - - - - SSE 33 41 18 22 1013.0 - -
15/05:00am 23.0 - - - - SSE 33 41 18 22 1012.7 1012.6 -
15/04:30am 23.1 - - - - S 35 43 19 23 1012.6 - -
15/04:00am 22.9 - - - - S 32 37 17 20 1012.6 1012.5 -
15/03:30am 23.2 - - - - S 35 43 19 23 1012.5 - -
15/03:00am 23.1 - - - - S 37 43 20 23 1012.2 1012.1 -
15/02:30am 23.4 - - - - SSE 35 44 19 24 1012.3 - -
15/02:00am 23.5 - - - - SSE 33 41 18 22 1012.7 1012.6 -
15/01:30am 23.7 - - - - S 37 44 20 24 1012.5 - -
15/01:00am 23.8 - - - - SSE 39 46 21 25 1012.2 1012.1 -
15/12:30am 23.9 - - - - S 26 37 14 20 1012.4 - -
15/12:00am 23.4 - - - - SSW 22 26 12 14 1012.7 1012.6 -
 
Date/Time
EST
Temp
°C
App
Temp
°C
Dew
Point
Rel
Hum
%
Delta-T
°C
Wind Press
QNH
hPa
Press
MSL
hPa
Rain
since 9 am
mm
Dir
 
Spd
km/h
Gust
km/h
Spd
kts
Gust
kts
14/11:30pm 23.6 - - - - S 24 32 13 17 1012.4 - -
14/11:00pm 24.4 - - - - S 30 43 16 23 1012.5 1012.4 -
14/10:30pm 23.8 - - - - S 26 30 14 16 1012.5 - -
14/10:00pm 23.9 - - - - SSW 26 32 14 17 1012.6 1012.5 -

Other Formats:

Comma delimited format used in spreadsheet applications
http://www.bom.gov.au/fwo/IDQ60801/IDQ60801.94378.axf

JavaScript Object Notation format (JSON) in row-major order
http://www.bom.gov.au/fwo/IDQ60801/IDQ60801.94378.json